PWSweather.com
Personal Weather Stations
Station Observations
TARRYHILL
Tarrytown, NY 10591

Tarrytown, NY 10591

Lat: 41.05185, Lon: -73.85296

Elevation: 341

Station Type: Davis Vantage Vue

Latest ConditionsUpdated 3:00:00 PM EDT Thursday, Oct 18, 2018
Currently Today's Max Today's Min Today's Average
Temperature 48.3°F9.1°C 48.7°F9.3°C 38.5°F3.6°C 42.5°F5.8°C
Dew Point 23.8°F-4.6°C 32.4°F0.2°C 22.1°F-5.5°C 27.8°F-2.3°C
Winds 3.5 mph E5.6 kmh E 5.8 mph -9.3 kmh - - 2.5 mph 4.0 kmh
Wind Gusts 8.1 mph13.0 kmh 13.8 mph22.2 kmh - -
Humidity 38% 69% 38% 57%
Pressure 30.32 in1026.8 mb 30.35 in1027.8 mb 30.12 in1020.0 mb -
Hour Temp Dew Point Humidity Winds Wind Gusts Pressure Precip Precip Rate Daily Precip Total
03:00 PM 48.3°F9.1°C 23.8°F-4.6°C 38% 3.5 mph E5.6 kmh E 8.1 mph13.0 kmh 30.32 in1026.8 mb - 0.00 in0.0 mm 0.00 in0.0 mm
02:30 PM 48.7°F9.3°C 24.8°F-4.0°C 39% 2.3 mph SSW3.7 kmh SSW 5.8 mph9.3 kmh 30.32 in1026.8 mb - 0.00 in0.0 mm 0.00 in0.0 mm
02:00 PM 47.8°F8.8°C 24.0°F-4.4°C 39% 2.3 mph SW3.7 kmh SW 6.9 mph11.1 kmh 30.33 in1027.1 mb - 0.00 in0.0 mm 0.00 in0.0 mm
01:30 PM 47.2°F8.4°C 23.5°F-4.7°C 39% 1.2 mph SW1.9 kmh SW 2.3 mph3.7 kmh 30.33 in1027.1 mb - 0.00 in0.0 mm 0.00 in0.0 mm
01:00 PM 46.9°F8.3°C 23.8°F-4.6°C 40% 3.5 mph NW5.6 kmh NW 10.4 mph16.7 kmh 30.34 in1027.4 mb - 0.00 in0.0 mm 0.00 in0.0 mm
12:30 PM 45.5°F7.5°C 23.1°F-4.9°C 41% 2.3 mph NNE3.7 kmh NNE 8.1 mph13.0 kmh 30.34 in1027.4 mb - 0.00 in0.0 mm 0.00 in0.0 mm
12:00 PM 45.2°F7.3°C 24.0°F-4.4°C 43% 3.5 mph ESE5.6 kmh ESE 5.8 mph9.3 kmh 30.35 in1027.8 mb - 0.00 in0.0 mm 0.00 in0.0 mm
11:30 AM 44.2°F6.8°C 23.1°F-4.9°C 43% 5.8 mph NW9.3 kmh NW 4.6 mph7.4 kmh 30.34 in1027.4 mb - 0.00 in0.0 mm 0.00 in0.0 mm
11:00 AM 43.2°F6.2°C 22.1°F-5.5°C 43% 2.3 mph NNE3.7 kmh NNE 11.5 mph18.5 kmh 30.34 in1027.4 mb - 0.00 in0.0 mm 0.00 in0.0 mm
10:30 AM 42.5°F5.8°C 24.2°F-4.3°C 48% 2.3 mph N3.7 kmh N 6.9 mph11.1 kmh 30.34 in1027.4 mb - 0.00 in0.0 mm 0.00 in0.0 mm
10:00 AM 41.7°F5.4°C 23.9°F-4.5°C 49% 5.8 mph NE9.3 kmh NE 13.8 mph22.2 kmh 30.34 in1027.4 mb - 0.00 in0.0 mm 0.00 in0.0 mm
09:30 AM 40.7°F4.8°C 25.8°F-3.4°C 55% 3.5 mph SSE5.6 kmh SSE 3.5 mph5.6 kmh 30.34 in1027.4 mb - 0.00 in0.0 mm 0.00 in0.0 mm
09:00 AM 39.5°F4.2°C 26.3°F-3.2°C 59% 2.3 mph WNW3.7 kmh WNW 4.6 mph7.4 kmh 30.34 in1027.4 mb - 0.00 in0.0 mm 0.00 in0.0 mm
08:30 AM 38.9°F3.8°C 27.7°F-2.4°C 64% Calm Calm 3.5 mph5.6 kmh 30.32 in1026.8 mb - 0.00 in0.0 mm 0.00 in0.0 mm
08:00 AM 38.5°F3.6°C 28.5°F-1.9°C 67% Calm Calm 3.5 mph5.6 kmh 30.31 in1026.4 mb - 0.00 in0.0 mm 0.00 in0.0 mm
07:30 AM 38.6°F3.7°C 29.3°F-1.5°C 69% 1.2 mph SSW1.9 kmh SSW 3.5 mph5.6 kmh 30.30 in1026.1 mb - 0.00 in0.0 mm 0.00 in0.0 mm
07:00 AM 39.1°F3.9°C 29.4°F-1.4°C 68% 1.2 mph SW1.9 kmh SW 3.5 mph5.6 kmh 30.27 in1025.1 mb - 0.00 in0.0 mm 0.00 in0.0 mm
06:30 AM 39.7°F4.3°C 30.0°F-1.1°C 68% 2.3 mph SSE3.7 kmh SSE 2.3 mph3.7 kmh 30.27 in1025.1 mb - 0.00 in0.0 mm 0.00 in0.0 mm
06:00 AM 39.9°F4.4°C 29.8°F-1.2°C 67% 2.3 mph SW3.7 kmh SW 4.6 mph7.4 kmh 30.25 in1024.4 mb - 0.00 in0.0 mm 0.00 in0.0 mm
05:30 AM 40.2°F4.6°C 30.1°F-1.1°C 67% 1.2 mph NE1.9 kmh NE 2.3 mph3.7 kmh 30.24 in1024.0 mb - 0.00 in0.0 mm 0.00 in0.0 mm
05:00 AM 40.6°F4.8°C 30.1°F-1.1°C 66% 1.2 mph WSW1.9 kmh WSW 3.5 mph5.6 kmh 30.21 in1023.0 mb - 0.00 in0.0 mm 0.00 in0.0 mm
04:30 AM 41.3°F5.2°C 30.8°F-0.7°C 66% 2.3 mph SSE3.7 kmh SSE 5.8 mph9.3 kmh 30.20 in1022.7 mb - 0.00 in0.0 mm 0.00 in0.0 mm
04:00 AM 41.2°F5.1°C 30.3°F-0.9°C 65% 2.3 mph SW3.7 kmh SW 3.5 mph5.6 kmh 30.19 in1022.4 mb - 0.00 in0.0 mm 0.00 in0.0 mm
03:30 AM 41.4°F5.2°C 30.9°F-0.6°C 66% 2.3 mph ESE3.7 kmh ESE 4.6 mph7.4 kmh 30.17 in1021.7 mb - 0.00 in0.0 mm 0.00 in0.0 mm
03:00 AM 41.5°F5.3°C 32.1°F0.1°C 69% 3.5 mph S5.6 kmh S 5.8 mph9.3 kmh 30.16 in1021.3 mb - 0.00 in0.0 mm 0.00 in0.0 mm
02:30 AM 41.7°F5.4°C 31.5°F-0.3°C 67% 2.3 mph WSW3.7 kmh WSW 4.6 mph7.4 kmh 30.16 in1021.3 mb - 0.00 in0.0 mm 0.00 in0.0 mm
02:00 AM 42.0°F5.6°C 31.9°F-0.1°C 67% 1.2 mph SSW1.9 kmh SSW 3.5 mph5.6 kmh 30.16 in1021.3 mb - 0.00 in0.0 mm 0.00 in0.0 mm
01:30 AM 42.5°F5.8°C 31.9°F-0.1°C 66% 2.3 mph SW3.7 kmh SW 4.6 mph7.4 kmh 30.16 in1021.3 mb - 0.00 in0.0 mm 0.00 in0.0 mm
01:00 AM 42.8°F6.0°C 31.5°F-0.3°C 64% 4.6 mph E7.4 kmh E 8.1 mph13.0 kmh 30.15 in1021.0 mb - 0.00 in0.0 mm 0.00 in0.0 mm
12:30 AM 43.5°F6.4°C 31.7°F-0.2°C 63% 3.5 mph NE5.6 kmh NE 8.1 mph13.0 kmh 30.14 in1020.7 mb - 0.00 in0.0 mm 0.00 in0.0 mm
12:00 AM 44.2°F6.8°C 32.4°F0.2°C 63% 2.3 mph WSW3.7 kmh WSW 8.1 mph13.0 kmh 30.12 in1020.0 mb - 0.00 in0.0 mm 0.00 in0.0 mm